This is the latest recevied weather packets stored in our database for station/object DC4AT. If no packets are shown the sender has not sent any weather packets the latest 10 day(s).
| Time | Temp. | Humidity | Pressure | Rain* | Wind** | Luminosity | Snow |
|---|---|---|---|---|---|---|---|
| 1777612427 | 5° C | 84% | 1030 hPa | 0 mm | - | 23 W/m² | - |
| 1777611827 | 4.44° C | 86% | 1030.1 hPa | 0 mm | - | 21 W/m² | - |
| 1777611227 | 3.89° C | 86% | 1030.1 hPa | 0 mm | - | 19 W/m² | - |
| 1777610627 | 3.33° C | 86% | 1030 hPa | 0 mm | - | 18 W/m² | - |
| 1777610027 | 3.33° C | 86% | 1029.9 hPa | 0 mm | - | 14 W/m² | - |
| 1777609427 | 3.33° C | 85% | 1029.9 hPa | 0 mm | - | 12 W/m² | - |
| 1777608827 | 3.33° C | 85% | 1029.9 hPa | 0 mm | - | 9 W/m² | - |
| 1777608227 | 3.33° C | 84% | 1029.8 hPa | 0 mm | - | 5 W/m² | - |
| 1777607627 | 3.89° C | 83% | 1029.8 hPa | 0 mm | - | 0 W/m² | - |
| 1777607027 | 3.89° C | 83% | 1029.8 hPa | 0 mm | - | 0 W/m² | - |
| 1777606427 | 3.89° C | 81% | 1029.7 hPa | 0 mm | - | 0 W/m² | - |
| 1777605827 | 4.44° C | 81% | 1029.7 hPa | 0 mm | - | 0 W/m² | - |
| 1777605227 | 5° C | 81% | 1029.7 hPa | 0 mm | - | 0 W/m² | - |
| 1777604627 | 4.44° C | 82% | 1029.6 hPa | 0 mm | - | 0 W/m² | - |
| 1777604027 | 4.44° C | 82% | 1029.8 hPa | 0 mm | - | 0 W/m² | - |
| 1777603427 | 4.44° C | 82% | 1029.9 hPa | 0 mm | - | 0 W/m² | - |
| 1777602827 | 4.44° C | 82% | 1030.1 hPa | 0 mm | - | 0 W/m² | - |
| 1777602227 | 4.44° C | 81% | 1030.2 hPa | 0 mm | - | 0 W/m² | - |
| 1777601628 | 4.44° C | 81% | 1030.1 hPa | 0 mm | - | 0 W/m² | - |
| 1777601028 | 5° C | 80% | 1030.1 hPa | 0 mm | - | 0 W/m² | - |
| 1777600428 | 5° C | 79% | 1030.1 hPa | 0 mm | - | 0 W/m² | - |
| 1777586628 | 8.33° C | 67% | 1030.1 hPa | 0 mm | - | 0 W/m² | - |
| 1777583628 | 10.56° C | 60% | 1030.2 hPa | 0 mm | - | 0 W/m² | - |
| 1777583028 | 11.11° C | 57% | 1030.2 hPa | 0 mm | - | 0 W/m² | - |
| 1777580028 | 12.22° C | 54% | 1030.2 hPa | 0 mm | - | 0 W/m² | - |
* Rain latest hour (hover to see other rain measurements)
** Current wind speed in m/s (hover to see current wind gust speed)